Cut Bank Municipal Airport
KCTB : now visible

Airfield :











YOU CAN JOIN US ON...

 
LOGIN :

Register | Disclaimer

   EN    FR    IT 

 









Legend :    VFR   Marginal VFR   IFR   Intensive IFR   Very Intensive IFR
Visi :
Ceiling :
>= 8 km
>= 3000ft
5 to 8 km
1000 to 3000 ft
1500m to 5 km
500 to 1000 ft
800 to 1500m
200 to 500 ft
< 800m
< 200 ft
Symbols :   Thunderstorms  Fog  Heavy snow  Heavy precipitations  Wind > 20 kt






- Airport Elevation : 3854 ft


KCTB - Cut Bank Municipal

CURRENT METAR :
  • 290056Z AUTO 20004KT 10SM CLR 06/01 A3000 RMK AO2 SLP176 T00560011

EXPIRED METARs :
  • 282356Z AUTO 22004KT 10SM CLR 06/01 A3001 RMK AO2 SLP179 T00560011 10078 20056 58006
  • 282256Z AUTO 09007KT 10SM BKN080 06/01 A3003 RMK AO2 SLP183 T00610011

TAF KCTB
Valid from the 29 at 00:00 until the 30 at 00:00 UTC


282335Z 2900/2924 VRB06KT P6SM BKN070 OVC120 WS020/27040KT
FM290400 23011G20KT P6SM SCT080 BKN150 WS018/26040KT
FM290800 25020G30KT P6SM SCT080 BKN150 WS019/26050KT
FM291200 26022G33KT P6SM SCT070 BKN150 WS019/28045KT
FM292200 29016G24KT P6SM SCT060 BKN120 WS019/28040KT
KZLC FIR / North America



MET'MAP, your aeronautical weather chart ! - Copyright ORBIFLY December 2007 - Disclaimer

ORBIFLY MET'MAP TEAM :

Programming & Development : Alexandra Zaïnal
Concept & original design : Baudouin d'Aumeries
Assistance for programming : Marc-Olivier Méhu
Technical & hardware support : Manuel Goepfert

Contact : metmap@orbifly.com




SOURCES & CREDITS :

   NOAA       Earth
Advisory